Terminal Aerodrome Forecast
Issued by NWS Binghamton, NY

Home | Current Version | Previous Version | Text Only | Print | Product List | Glossary On
Versions: 1 2 3 4 5 6 7 8 9 10 11 12 13 14 15 16 17 18 19 20 21 22 23
137
FTUS41 KBGM 231349 AAB
TAFAVP
TAF AMD
KAVP 231349Z 2314/2412 00000KT P6SM BKN045
     FM240100 14005KT P6SM -SHRA OVC040
      TEMPO 2401/2405 4SM TSRA BR OVC030CB
     FM240500 11005KT 3SM SHRA BR OVC015
     FM241000 10005KT 4SM BR OVC008=

USA.gov is the U.S. government's official web portal to all federal, state and local government web resources and services.